sensor_id;sensor_type;location;lat;lon;timestamp;pressure;altitude;pressure_sealevel;temperature;humidity
30724;BME280;17473;52.286;20.930;2022-12-24T00:01:22;99292.53;;;7.08;100.00
30724;BME280;17473;52.286;20.930;2022-12-24T00:03:49;99287.31;;;7.09;100.00
30724;BME280;17473;52.286;20.930;2022-12-24T00:06:22;99281.66;;;6.95;100.00
30724;BME280;17473;52.286;20.930;2022-12-24T00:08:50;99291.63;;;7.07;100.00
30724;BME280;17473;52.286;20.930;2022-12-24T00:11:18;99288.69;;;6.96;100.00
30724;BME280;17473;52.286;20.930;2022-12-24T00:13:45;99283.56;;;7.01;100.00
30724;BME280;17473;52.286;20.930;2022-12-24T00:16:13;99283.41;;;6.95;100.00
30724;BME280;17473;52.286;20.930;2022-12-24T00:18:40;99283.16;;;6.87;100.00
30724;BME280;17473;52.286;20.930;2022-12-24T00:21:14;99278.22;;;6.98;100.00
30724;BME280;17473;52.286;20.930;2022-12-24T00:23:41;99279.28;;;7.03;100.00
30724;BME280;17473;52.286;20.930;2022-12-24T00:26:08;99280.09;;;7.02;100.00
30724;BME280;17473;52.286;20.930;2022-12-24T00:28:35;99268.81;;;7.04;100.00
30724;BME280;17473;52.286;20.930;2022-12-24T00:31:17;99279.41;;;7.08;100.00
30724;BME280;17473;52.286;20.930;2022-12-24T00:33:46;99278.47;;;7.05;100.00
30724;BME280;17473;52.286;20.930;2022-12-24T00:36:14;99286.38;;;7.07;100.00
30724;BME280;17473;52.286;20.930;2022-12-24T00:38:41;99285.66;;;7.13;100.00
30724;BME280;17473;52.286;20.930;2022-12-24T00:41:09;99286.63;;;7.15;100.00
30724;BME280;17473;52.286;20.930;2022-12-24T00:44:00;99283.56;;;7.01;100.00
30724;BME280;17473;52.286;20.930;2022-12-24T00:46:32;99287.00;;;6.98;100.00
30724;BME280;17473;52.286;20.930;2022-12-24T00:49:00;99291.59;;;7.05;100.00
30724;BME280;17473;52.286;20.930;2022-12-24T00:51:27;99277.75;;;7.11;100.00
30724;BME280;17473;52.286;20.930;2022-12-24T00:53:55;99287.19;;;7.04;100.00
30724;BME280;17473;52.286;20.930;2022-12-24T00:56:22;99274.44;;;6.88;100.00
30724;BME280;17473;52.286;20.930;2022-12-24T00:58:50;99281.75;;;6.98;100.00
30724;BME280;17473;52.286;20.930;2022-12-24T01:01:18;99279.31;;;7.04;100.00
30724;BME280;17473;52.286;20.930;2022-12-24T01:03:48;99274.16;;;7.08;100.00
30724;BME280;17473;52.286;20.930;2022-12-24T01:06:20;99273.28;;;7.09;100.00
30724;BME280;17473;52.286;20.930;2022-12-24T01:08:50;99271.03;;;6.92;100.00
30724;BME280;17473;52.286;20.930;2022-12-24T01:11:18;99264.00;;;7.20;100.00
30724;BME280;17473;52.286;20.930;2022-12-24T01:13:45;99270.03;;;7.16;100.00
30724;BME280;17473;52.286;20.930;2022-12-24T01:16:18;99265.41;;;7.09;100.00
30724;BME280;17473;52.286;20.930;2022-12-24T01:18:47;99276.00;;;7.12;100.00
30724;BME280;17473;52.286;20.930;2022-12-24T01:21:15;99283.78;;;7.09;100.00
30724;BME280;17473;52.286;20.930;2022-12-24T01:23:42;99287.19;;;7.04;100.00
30724;BME280;17473;52.286;20.930;2022-12-24T01:26:10;99279.31;;;7.04;100.00
30724;BME280;17473;52.286;20.930;2022-12-24T01:28:40;99278.03;;;6.92;100.00
30724;BME280;17473;52.286;20.930;2022-12-24T01:31:16;99279.06;;;6.97;100.00
30724;BME280;17473;52.286;20.930;2022-12-24T01:33:45;99276.50;;;6.98;100.00
30724;BME280;17473;52.286;20.930;2022-12-24T01:36:13;99284.50;;;7.03;100.00
30724;BME280;17473;52.286;20.930;2022-12-24T01:38:40;99280.25;;;7.07;100.00
30724;BME280;17473;52.286;20.930;2022-12-24T01:41:15;99278.53;;;7.09;100.00
30724;BME280;17473;52.286;20.930;2022-12-24T01:44:27;99288.00;;;7.03;100.00
30724;BME280;17473;52.286;20.930;2022-12-24T01:47:09;99287.88;;;6.99;100.00
30724;BME280;17473;52.286;20.930;2022-12-24T01:49:45;99284.44;;;7.01;100.00
30724;BME280;17473;52.286;20.930;2022-12-24T01:52:25;99290.59;;;7.02;100.00
30724;BME280;17473;52.286;20.930;2022-12-24T01:55:08;99284.38;;;6.98;100.00
30724;BME280;17473;52.286;20.930;2022-12-24T01:57:42;99288.13;;;7.07;100.00
30724;BME280;17473;52.286;20.930;2022-12-24T02:00:14;99295.22;;;7.11;100.00
30724;BME280;17473;52.286;20.930;2022-12-24T02:02:45;99299.13;;;6.95;100.00
30724;BME280;17473;52.286;20.930;2022-12-24T02:07:54;99295.16;;;7.08;100.00
30724;BME280;17473;52.286;20.930;2022-12-24T02:10:22;99293.97;;;6.98;100.00
30724;BME280;17473;52.286;20.930;2022-12-24T02:12:50;99292.97;;;6.94;100.00
30724;BME280;17473;52.286;20.930;2022-12-24T02:15:18;99292.13;;;6.95;100.00
30724;BME280;17473;52.286;20.930;2022-12-24T02:18:25;99287.88;;;6.99;100.00
30724;BME280;17473;52.286;20.930;2022-12-24T02:35:51;99294.28;;;7.09;100.00
30724;BME280;17473;52.286;20.930;2022-12-24T02:38:54;99285.25;;;6.99;100.00
30724;BME280;17473;52.286;20.930;2022-12-24T02:41:34;99285.56;;;7.10;100.00
30724;BME280;17473;52.286;20.930;2022-12-24T02:44:25;99282.38;;;6.91;100.00
30724;BME280;17473;52.286;20.930;2022-12-24T02:46:53;99276.91;;;6.83;100.00
30724;BME280;17473;52.286;20.930;2022-12-24T02:49:21;99275.69;;;6.72;100.00
30724;BME280;17473;52.286;20.930;2022-12-24T02:51:48;99276.13;;;6.86;100.00
30724;BME280;17473;52.286;20.930;2022-12-24T02:54:16;99286.28;;;6.75;100.00
30724;BME280;17473;52.286;20.930;2022-12-24T03:05:50;99294.88;;;6.71;100.00
30724;BME280;17473;52.286;20.930;2022-12-24T03:08:59;99294.94;;;6.45;100.00
30724;BME280;17473;52.286;20.930;2022-12-24T03:11:28;99293.41;;;6.52;100.00
30724;BME280;17473;52.286;20.930;2022-12-24T03:13:58;99297.28;;;6.63;100.00
30724;BME280;17473;52.286;20.930;2022-12-24T03:16:26;99293.59;;;6.58;100.00
30724;BME280;17473;52.286;20.930;2022-12-24T03:18:55;99297.50;;;6.71;100.00
30724;BME280;17473;52.286;20.930;2022-12-24T03:21:34;99294.81;;;6.68;100.00
30724;BME280;17473;52.286;20.930;2022-12-24T03:24:04;99299.91;;;6.63;100.00
30724;BME280;17473;52.286;20.930;2022-12-24T03:26:33;99298.16;;;6.64;100.00
30724;BME280;17473;52.286;20.930;2022-12-24T03:29:06;99300.50;;;6.56;100.00
30724;BME280;17473;52.286;20.930;2022-12-24T03:31:46;99299.59;;;6.54;100.00
30724;BME280;17473;52.286;20.930;2022-12-24T03:34:15;99295.81;;;6.46;100.00
30724;BME280;17473;52.286;20.930;2022-12-24T03:36:42;99298.81;;;6.56;100.00
30724;BME280;17473;52.286;20.930;2022-12-24T03:39:10;99309.00;;;6.47;100.00
30724;BME280;17473;52.286;20.930;2022-12-24T03:41:37;99294.72;;;6.39;100.00
30724;BME280;17473;52.286;20.930;2022-12-24T03:44:05;99299.34;;;6.46;100.00
30724;BME280;17473;52.286;20.930;2022-12-24T03:46:32;99303.59;;;6.42;100.00
30724;BME280;17473;52.286;20.930;2022-12-24T03:48:59;99304.47;;;6.43;100.00
30724;BME280;17473;52.286;20.930;2022-12-24T03:51:27;99302.97;;;6.24;100.00
30724;BME280;17473;52.286;20.930;2022-12-24T03:53:56;99318.81;;;6.27;100.00
30724;BME280;17473;52.286;20.930;2022-12-24T03:56:24;99313.41;;;6.22;100.00
30724;BME280;17473;52.286;20.930;2022-12-24T03:58:52;99311.66;;;6.23;100.00
30724;BME280;17473;52.286;20.930;2022-12-24T04:01:19;99309.84;;;6.20;100.00
30724;BME280;17473;52.286;20.930;2022-12-24T04:03:46;99311.50;;;6.18;100.00
30724;BME280;17473;52.286;20.930;2022-12-24T04:06:15;99313.84;;;6.10;100.00
30724;BME280;17473;52.286;20.930;2022-12-24T04:08:43;99312.09;;;6.09;100.00
30724;BME280;17473;52.286;20.930;2022-12-24T04:11:14;99315.66;;;6.11;100.00
30724;BME280;17473;52.286;20.930;2022-12-24T04:13:42;99301.66;;;6.11;100.00
30724;BME280;17473;52.286;20.930;2022-12-24T04:16:13;99310.88;;;6.00;100.00
30724;BME280;17473;52.286;20.930;2022-12-24T04:18:42;99305.78;;;6.04;100.00
30724;BME280;17473;52.286;20.930;2022-12-24T04:21:10;99305.31;;;6.16;100.00
30724;BME280;17473;52.286;20.930;2022-12-24T04:23:39;99299.88;;;6.10;100.00
30724;BME280;17473;52.286;20.930;2022-12-24T04:26:09;99296.41;;;5.87;100.00
30724;BME280;17473;52.286;20.930;2022-12-24T04:28:37;99287.41;;;5.78;100.00
30724;BME280;17473;52.286;20.930;2022-12-24T04:31:09;99293.50;;;5.79;100.00
30724;BME280;17473;52.286;20.930;2022-12-24T04:33:37;99301.66;;;5.87;100.00
30724;BME280;17473;52.286;20.930;2022-12-24T04:36:05;99303.22;;;5.82;100.00
30724;BME280;17473;52.286;20.930;2022-12-24T04:38:33;99296.38;;;5.61;100.00
30724;BME280;17473;52.286;20.930;2022-12-24T04:41:07;99297.59;;;5.71;100.00
30724;BME280;17473;52.286;20.930;2022-12-24T04:43:34;99299.53;;;5.76;100.00
30724;BME280;17473;52.286;20.930;2022-12-24T04:46:17;99306.53;;;5.76;100.00
30724;BME280;17473;52.286;20.930;2022-12-24T04:48:46;99297.81;;;5.77;100.00
30724;BME280;17473;52.286;20.930;2022-12-24T04:51:14;99298.41;;;5.70;100.00
30724;BME280;17473;52.286;20.930;2022-12-24T04:53:42;99305.69;;;5.77;100.00
30724;BME280;17473;52.286;20.930;2022-12-24T04:56:25;99315.88;;;5.69;100.00
30724;BME280;17473;52.286;20.930;2022-12-24T04:58:53;99319.72;;;5.55;100.00
30724;BME280;17473;52.286;20.930;2022-12-24T05:01:24;99328.41;;;5.54;100.00
30724;BME280;17473;52.286;20.930;2022-12-24T05:03:53;99315.94;;;5.46;100.00
30724;BME280;17473;52.286;20.930;2022-12-24T05:06:29;99320.81;;;5.37;100.00
30724;BME280;17473;52.286;20.930;2022-12-24T05:08:57;99323.00;;;5.49;100.00
30724;BME280;17473;52.286;20.930;2022-12-24T05:11:25;99318.56;;;5.46;100.00
30724;BME280;17473;52.286;20.930;2022-12-24T05:13:52;99321.19;;;5.46;100.00
30724;BME280;17473;52.286;20.930;2022-12-24T05:16:21;99321.00;;;5.42;100.00
30724;BME280;17473;52.286;20.930;2022-12-24T05:18:48;99327.25;;;5.45;100.00
30724;BME280;17473;52.286;20.930;2022-12-24T05:21:19;99315.41;;;5.57;100.00
30724;BME280;17473;52.286;20.930;2022-12-24T05:23:47;99319.78;;;5.56;100.00
30724;BME280;17473;52.286;20.930;2022-12-24T05:26:39;99318.94;;;5.57;100.00
30724;BME280;17473;52.286;20.930;2022-12-24T05:29:09;99321.28;;;5.49;100.00
30724;BME280;17473;52.286;20.930;2022-12-24T05:31:38;99322.06;;;5.47;100.00
30724;BME280;17473;52.286;20.930;2022-12-24T05:34:07;99317.25;;;5.35;100.00
30724;BME280;17473;52.286;20.930;2022-12-24T05:36:35;99319.25;;;5.42;100.00
30724;BME280;17473;52.286;20.930;2022-12-24T05:39:02;99321.19;;;5.46;100.00
30724;BME280;17473;52.286;20.930;2022-12-24T05:41:35;99330.25;;;5.56;100.00
30724;BME280;17473;52.286;20.930;2022-12-24T05:44:02;99334.44;;;5.51;100.00
30724;BME280;17473;52.286;20.930;2022-12-24T05:46:30;99339.91;;;5.57;100.00
30724;BME280;17473;52.286;20.930;2022-12-24T05:48:57;99337.00;;;5.74;100.00
30724;BME280;17473;52.286;20.930;2022-12-24T05:51:24;99341.50;;;5.54;100.00
30724;BME280;17473;52.286;20.930;2022-12-24T05:53:51;99343.31;;;5.55;100.00
30724;BME280;17473;52.286;20.930;2022-12-24T05:56:22;99346.28;;;5.41;100.00
30724;BME280;17473;52.286;20.930;2022-12-24T05:58:51;99340.03;;;5.38;100.00
30724;BME280;17473;52.286;20.930;2022-12-24T06:01:20;99346.16;;;5.38;100.00
30724;BME280;17473;52.286;20.930;2022-12-24T06:03:48;99341.81;;;5.39;100.00
30724;BME280;17473;52.286;20.930;2022-12-24T06:06:22;99346.44;;;5.46;100.00
30724;BME280;17473;52.286;20.930;2022-12-24T06:08:53;99347.41;;;5.48;100.00
30724;BME280;17473;52.286;20.930;2022-12-24T06:11:25;99350.06;;;5.49;100.00
30724;BME280;17473;52.286;20.930;2022-12-24T06:13:53;99352.50;;;5.45;100.00
30724;BME280;17473;52.286;20.930;2022-12-24T06:16:22;99359.66;;;5.49;100.00
30724;BME280;17473;52.286;20.930;2022-12-24T06:18:50;99354.53;;;5.52;100.00
30724;BME280;17473;52.286;20.930;2022-12-24T06:21:18;99348.22;;;5.47;100.00
30724;BME280;17473;52.286;20.930;2022-12-24T06:23:46;99356.75;;;5.41;100.00
30724;BME280;17473;52.286;20.930;2022-12-24T06:26:19;99355.25;;;5.25;100.00
30724;BME280;17473;52.286;20.930;2022-12-24T06:28:47;99360.81;;;5.33;100.00
30724;BME280;17473;52.286;20.930;2022-12-24T06:31:18;99360.28;;;5.42;100.00
30724;BME280;17473;52.286;20.930;2022-12-24T06:33:47;99368.78;;;5.36;100.00
30724;BME280;17473;52.286;20.930;2022-12-24T06:36:21;99365.84;;;5.28;100.00
30724;BME280;17473;52.286;20.930;2022-12-24T06:38:49;99371.28;;;5.33;100.00
30724;BME280;17473;52.286;20.930;2022-12-24T06:41:18;99375.84;;;5.39;100.00
30724;BME280;17473;52.286;20.930;2022-12-24T06:43:47;99375.72;;;5.36;100.00
30724;BME280;17473;52.286;20.930;2022-12-24T06:46:16;99378.16;;;5.31;100.00
30724;BME280;17473;52.286;20.930;2022-12-24T06:48:44;99387.94;;;5.35;100.00
30724;BME280;17473;52.286;20.930;2022-12-24T06:51:13;99385.50;;;5.40;100.00
30724;BME280;17473;52.286;20.930;2022-12-24T06:53:41;99383.94;;;5.45;100.00
30724;BME280;17473;52.286;20.930;2022-12-24T06:56:11;99381.03;;;5.37;100.00
30724;BME280;17473;52.286;20.930;2022-12-24T06:58:40;99377.00;;;5.45;100.00
30724;BME280;17473;52.286;20.930;2022-12-24T07:01:11;99389.06;;;5.42;100.00
30724;BME280;17473;52.286;20.930;2022-12-24T07:03:39;99390.84;;;5.43;100.00
30724;BME280;17473;52.286;20.930;2022-12-24T07:06:14;99394.19;;;5.39;100.00
30724;BME280;17473;52.286;20.930;2022-12-24T07:08:42;99398.41;;;5.35;100.00
30724;BME280;17473;52.286;20.930;2022-12-24T07:11:09;99394.69;;;5.30;100.00
30724;BME280;17473;52.286;20.930;2022-12-24T07:13:36;99396.56;;;5.32;100.00
30724;BME280;17473;52.286;20.930;2022-12-24T07:16:04;99402.03;;;5.39;100.00
30724;BME280;17473;52.286;20.930;2022-12-24T07:18:31;99397.75;;;5.41;100.00
30724;BME280;17473;52.286;20.930;2022-12-24T07:20:59;99408.59;;;5.50;100.00
30724;BME280;17473;52.286;20.930;2022-12-24T07:23:27;99416.63;;;5.55;100.00
30724;BME280;17473;52.286;20.930;2022-12-24T07:25:54;99418.69;;;5.63;100.00
30724;BME280;17473;52.286;20.930;2022-12-24T07:28:21;99420.25;;;5.58;100.00
30724;BME280;17473;52.286;20.930;2022-12-24T07:30:55;99421.97;;;5.58;100.00
30724;BME280;17473;52.286;20.930;2022-12-24T07:33:23;99426.28;;;5.56;100.00
30724;BME280;17473;52.286;20.930;2022-12-24T07:36:06;99425.94;;;5.71;100.00
30724;BME280;17473;52.286;20.930;2022-12-24T07:38:34;99431.84;;;5.65;100.00
30724;BME280;17473;52.286;20.930;2022-12-24T07:41:01;99430.78;;;5.60;100.00
30724;BME280;17473;52.286;20.930;2022-12-24T07:43:28;99441.56;;;5.68;100.00
30724;BME280;17473;52.286;20.930;2022-12-24T07:45:56;99438.09;;;5.69;100.00
30724;BME280;17473;52.286;20.930;2022-12-24T07:48:26;99445.88;;;5.67;100.00
30724;BME280;17473;52.286;20.930;2022-12-24T07:50:53;99433.44;;;5.61;100.00
30724;BME280;17473;52.286;20.930;2022-12-24T07:53:21;99446.44;;;5.58;100.00
30724;BME280;17473;52.286;20.930;2022-12-24T07:55:49;99439.28;;;5.31;100.00
30724;BME280;17473;52.286;20.930;2022-12-24T07:58:16;99447.69;;;5.45;100.00
30724;BME280;17473;52.286;20.930;2022-12-24T08:00:43;99450.13;;;5.41;100.00
30724;BME280;17473;52.286;20.930;2022-12-24T08:03:20;99450.63;;;5.32;100.00
30724;BME280;17473;52.286;20.930;2022-12-24T08:05:48;99454.91;;;5.30;100.00
30724;BME280;17473;52.286;20.930;2022-12-24T08:08:15;99460.63;;;5.20;100.00
30724;BME280;17473;52.286;20.930;2022-12-24T08:10:43;99453.19;;;5.30;100.00
30724;BME280;17473;52.286;20.930;2022-12-24T08:13:12;99458.31;;;5.27;100.00
30724;BME280;17473;52.286;20.930;2022-12-24T08:15:40;99450.44;;;5.27;100.00
30724;BME280;17473;52.286;20.930;2022-12-24T08:18:09;99450.44;;;5.27;100.00
30724;BME280;17473;52.286;20.930;2022-12-24T08:20:39;99456.84;;;5.34;100.00
30724;BME280;17473;52.286;20.930;2022-12-24T08:23:07;99457.53;;;5.30;100.00
30724;BME280;17473;52.286;20.930;2022-12-24T08:25:35;99458.25;;;5.26;100.00
30724;BME280;17473;52.286;20.930;2022-12-24T08:28:03;99463.50;;;5.26;100.00
30724;BME280;17473;52.286;20.930;2022-12-24T08:30:30;99464.38;;;5.26;100.00
30724;BME280;17473;52.286;20.930;2022-12-24T08:32:57;99466.56;;;5.38;100.00
30724;BME280;17473;52.286;20.930;2022-12-24T08:35:24;99469.47;;;5.44;100.00
30724;BME280;17473;52.286;20.930;2022-12-24T08:37:51;99477.53;;;5.28;100.00
30724;BME280;17473;52.286;20.930;2022-12-24T08:40:18;99477.00;;;5.37;100.00
30724;BME280;17473;52.286;20.930;2022-12-24T08:42:45;99486.31;;;5.51;100.00
30724;BME280;17473;52.286;20.930;2022-12-24T08:45:13;99486.84;;;5.65;100.00
30724;BME280;17473;52.286;20.930;2022-12-24T08:47:41;99490.38;;;5.66;100.00
30724;BME280;17473;52.286;20.930;2022-12-24T08:50:09;99498.81;;;5.58;100.00
30724;BME280;17473;52.286;20.930;2022-12-24T08:52:36;99486.13;;;5.46;100.00
30724;BME280;17473;52.286;20.930;2022-12-24T08:55:04;99495.06;;;5.52;100.00
30724;BME280;17473;52.286;20.930;2022-12-24T08:57:34;99500.25;;;5.50;100.00
30724;BME280;17473;52.286;20.930;2022-12-24T09:00:06;99501.91;;;5.27;100.00
30724;BME280;17473;52.286;20.930;2022-12-24T09:02:34;99501.91;;;5.27;100.00
30724;BME280;17473;52.286;20.930;2022-12-24T09:05:01;99502.69;;;5.45;100.00
30724;BME280;17473;52.286;20.930;2022-12-24T09:07:28;99506.81;;;5.40;100.00
30724;BME280;17473;52.286;20.930;2022-12-24T09:09:55;99505.56;;;5.53;100.00
30724;BME280;17473;52.286;20.930;2022-12-24T09:12:23;99500.78;;;5.43;100.00
30724;BME280;17473;52.286;20.930;2022-12-24T09:14:51;99498.09;;;5.40;100.00
30724;BME280;17473;52.286;20.930;2022-12-24T09:17:18;99510.72;;;5.50;100.00
30724;BME280;17473;52.286;20.930;2022-12-24T09:19:45;99508.69;;;5.66;100.00
30724;BME280;17473;52.286;20.930;2022-12-24T09:22:13;99517.75;;;5.74;100.00
30724;BME280;17473;52.286;20.930;2022-12-24T09:24:40;99521.75;;;5.64;100.00
30724;BME280;17473;52.286;20.930;2022-12-24T09:27:07;99518.25;;;5.65;100.00
30724;BME280;17473;52.286;20.930;2022-12-24T09:29:34;99523.09;;;5.54;100.00
30724;BME280;17473;52.286;20.930;2022-12-24T09:32:02;99522.19;;;5.54;100.00
30724;BME280;17473;52.286;20.930;2022-12-24T09:34:30;99525.28;;;5.43;100.00
30724;BME280;17473;52.286;20.930;2022-12-24T09:36:57;99528.72;;;5.42;100.00
30724;BME280;17473;52.286;20.930;2022-12-24T09:39:25;99524.75;;;5.52;100.00
30724;BME280;17473;52.286;20.930;2022-12-24T09:44:44;99540.53;;;5.76;100.00
30724;BME280;17473;52.286;20.930;2022-12-24T09:49:56;99532.63;;;5.75;100.00
30724;BME280;17473;52.286;20.930;2022-12-24T09:52:38;99540.38;;;5.72;100.00
30724;BME280;17473;52.286;20.930;2022-12-24T09:55:31;99538.34;;;5.87;100.00
30724;BME280;17473;52.286;20.930;2022-12-24T09:58:01;99537.69;;;5.93;100.00
30724;BME280;17473;52.286;20.930;2022-12-24T10:00:35;99544.47;;;5.65;100.00
30724;BME280;17473;52.286;20.930;2022-12-24T10:03:14;99551.63;;;5.69;100.00
30724;BME280;17473;52.286;20.930;2022-12-24T10:08:49;99551.22;;;5.81;100.00
30724;BME280;17473;52.286;20.930;2022-12-24T10:20:24;99565.72;;;5.73;100.00
30724;BME280;17473;52.286;20.930;2022-12-24T10:26:07;99568.91;;;5.64;100.00
30724;BME280;17473;52.286;20.930;2022-12-24T10:29:02;99570.41;;;5.59;100.00
30724;BME280;17473;52.286;20.930;2022-12-24T10:31:35;99576.56;;;5.59;100.00
30724;BME280;17473;52.286;20.930;2022-12-24T10:34:20;99575.69;;;5.82;100.00
30724;BME280;17473;52.286;20.930;2022-12-24T10:36:48;99575.16;;;5.90;100.00
30724;BME280;17473;52.286;20.930;2022-12-24T10:39:21;99581.22;;;5.67;100.00
30724;BME280;17473;52.286;20.930;2022-12-24T10:41:53;99589.28;;;5.50;100.00
30724;BME280;17473;52.286;20.930;2022-12-24T10:44:27;99587.59;;;5.73;100.00
30724;BME280;17473;52.286;20.930;2022-12-24T10:46:54;99580.94;;;5.60;100.00
30724;BME280;17473;52.286;20.930;2022-12-24T10:52:23;99589.00;;;5.86;100.00
30724;BME280;17473;52.286;20.930;2022-12-24T10:55:25;99594.94;;;5.82;100.00
30724;BME280;17473;52.286;20.930;2022-12-24T10:58:03;99601.59;;;5.96;100.00
30724;BME280;17473;52.286;20.930;2022-12-24T11:00:32;99602.97;;;6.08;100.00
30724;BME280;17473;52.286;20.930;2022-12-24T11:03:22;99606.84;;;5.96;100.00
30724;BME280;17473;52.286;20.930;2022-12-24T11:06:08;99610.81;;;6.08;100.00
30724;BME280;17473;52.286;20.930;2022-12-24T11:08:41;99604.81;;;5.89;100.00
30724;BME280;17473;52.286;20.930;2022-12-24T11:11:33;99607.19;;;5.83;100.00
30724;BME280;17473;52.286;20.930;2022-12-24T11:14:01;99610.59;;;6.02;100.00
30724;BME280;17473;52.286;20.930;2022-12-24T11:16:33;99607.38;;;6.09;100.00
30724;BME280;17473;52.286;20.930;2022-12-24T11:19:13;99605.91;;;6.16;100.00
30724;BME280;17473;52.286;20.930;2022-12-24T11:21:41;99616.28;;;6.14;100.00
30724;BME280;17473;52.286;20.930;2022-12-24T11:26:41;99623.34;;;5.94;100.00
30724;BME280;17473;52.286;20.930;2022-12-24T11:29:21;99620.84;;;5.97;100.00
30724;BME280;17473;52.286;20.930;2022-12-24T11:31:49;99622.38;;;5.92;100.00
30724;BME280;17473;52.286;20.930;2022-12-24T11:34:28;99614.19;;;6.04;100.00
30724;BME280;17473;52.286;20.930;2022-12-24T11:37:20;99627.03;;;6.20;100.00
30724;BME280;17473;52.286;20.930;2022-12-24T11:39:59;99628.09;;;6.03;100.00
30724;BME280;17473;52.286;20.930;2022-12-24T11:42:37;99638.63;;;6.04;100.00
30724;BME280;17473;52.286;20.930;2022-12-24T11:45:23;99641.03;;;6.21;100.00
30724;BME280;17473;52.286;20.930;2022-12-24T11:47:52;99643.00;;;6.26;100.00
30724;BME280;17473;52.286;20.930;2022-12-24T11:50:31;99652.84;;;6.09;100.00
30724;BME280;17473;52.286;20.930;2022-12-24T11:53:06;99647.47;;;6.06;100.00
30724;BME280;17473;52.286;20.930;2022-12-24T11:55:56;99653.06;;;6.16;100.00
30724;BME280;17473;52.286;20.930;2022-12-24T11:58:36;99654.78;;;6.15;100.00
30724;BME280;17473;52.286;20.930;2022-12-24T12:01:37;99661.81;;;6.16;100.00
30724;BME280;17473;52.286;20.930;2022-12-24T12:04:13;99671.81;;;6.25;100.00
30724;BME280;17473;52.286;20.930;2022-12-24T12:09:49;99668.44;;;6.29;100.00
30724;BME280;17473;52.286;20.930;2022-12-24T12:12:29;99668.72;;;6.35;100.00
30724;BME280;17473;52.286;20.930;2022-12-24T12:15:11;99673.59;;;6.26;100.00
30724;BME280;17473;52.286;20.930;2022-12-24T12:18:02;99674.22;;;6.20;100.00
30724;BME280;17473;52.286;20.930;2022-12-24T12:20:41;99678.34;;;6.14;100.00
30724;BME280;17473;52.286;20.930;2022-12-24T12:26:00;99678.09;;;6.07;100.00
30724;BME280;17473;52.286;20.930;2022-12-24T12:28:45;99695.00;;;5.94;100.00
30724;BME280;17473;52.286;20.930;2022-12-24T12:31:38;99696.59;;;5.91;100.00
30724;BME280;17473;52.286;20.930;2022-12-24T12:34:28;99712.09;;;6.06;100.00
30724;BME280;17473;52.286;20.930;2022-12-24T12:39:58;99720.09;;;6.09;100.00
30724;BME280;17473;52.286;20.930;2022-12-24T12:42:32;99721.88;;;6.10;100.00
30724;BME280;17473;52.286;20.930;2022-12-24T12:45:21;99738.25;;;6.04;100.00
30724;BME280;17473;52.286;20.930;2022-12-24T12:51:08;99739.91;;;6.02;100.00
30724;BME280;17473;52.286;20.930;2022-12-24T12:56:34;99747.63;;;6.41;100.00
30724;BME280;17473;52.286;20.930;2022-12-24T12:59:31;99752.88;;;6.41;100.00
30724;BME280;17473;52.286;20.930;2022-12-24T13:22:21;99780.94;;;6.44;100.00
30724;BME280;17473;52.286;20.930;2022-12-24T13:24:54;99784.50;;;6.67;100.00
30724;BME280;17473;52.286;20.930;2022-12-24T13:27:30;99776.19;;;6.56;100.00
30724;BME280;17473;52.286;20.930;2022-12-24T13:32:53;99801.56;;;6.79;100.00
30724;BME280;17473;52.286;20.930;2022-12-24T13:37:48;99808.47;;;6.77;100.00
30724;BME280;17473;52.286;20.930;2022-12-24T13:50:54;99830.63;;;6.83;99.53
30724;BME280;17473;52.286;20.930;2022-12-24T13:53:42;99825.19;;;6.79;99.89
30724;BME280;17473;52.286;20.930;2022-12-24T13:58:44;99829.13;;;6.90;98.55
30724;BME280;17473;52.286;20.930;2022-12-24T14:01:19;99843.66;;;6.82;99.06
30724;BME280;17473;52.286;20.930;2022-12-24T14:03:58;99845.44;;;6.83;99.01
30724;BME280;17473;52.286;20.930;2022-12-24T14:06:35;99852.41;;;6.81;99.15
30724;BME280;17473;52.286;20.930;2022-12-24T14:09:26;99859.03;;;6.72;99.37
30724;BME280;17473;52.286;20.930;2022-12-24T14:14:34;99868.63;;;6.72;98.81
30724;BME280;17473;52.286;20.930;2022-12-24T14:17:25;99864.47;;;6.56;99.25
30724;BME280;17473;52.286;20.930;2022-12-24T14:19:59;99887.88;;;6.72;99.01
30724;BME280;17473;52.286;20.930;2022-12-24T14:22:37;99893.47;;;6.59;99.33
30724;BME280;17473;52.286;20.930;2022-12-24T14:25:17;99891.25;;;6.68;99.31
30724;BME280;17473;52.286;20.930;2022-12-24T14:27:57;99892.31;;;6.73;99.14
30724;BME280;17473;52.286;20.930;2022-12-24T14:30:30;99908.88;;;6.51;99.78
30724;BME280;17473;52.286;20.930;2022-12-24T14:32:57;99901.63;;;6.46;99.49
30724;BME280;17473;52.286;20.930;2022-12-24T14:35:37;99893.22;;;6.32;100.00
30724;BME280;17473;52.286;20.930;2022-12-24T14:38:12;99917.31;;;6.44;99.81
30724;BME280;17473;52.286;20.930;2022-12-24T14:46:33;99924.41;;;6.47;98.64
30724;BME280;17473;52.286;20.930;2022-12-24T14:52:47;99933.06;;;6.24;99.22
30724;BME280;17473;52.286;20.930;2022-12-24T14:55:44;99950.53;;;6.44;98.17
30724;BME280;17473;52.286;20.930;2022-12-24T14:58:35;99954.28;;;6.50;98.33
30724;BME280;17473;52.286;20.930;2022-12-24T15:04:18;99954.63;;;6.37;98.93
30724;BME280;17473;52.286;20.930;2022-12-24T15:06:49;99959.25;;;6.23;98.87
30724;BME280;17473;52.286;20.930;2022-12-24T15:11:53;99968.22;;;5.90;100.00
30724;BME280;17473;52.286;20.930;2022-12-24T15:14:24;99964.63;;;6.06;100.00
30724;BME280;17473;52.286;20.930;2022-12-24T15:17:03;99982.50;;;5.77;100.00
30724;BME280;17473;52.286;20.930;2022-12-24T15:19:42;99986.19;;;5.63;100.00
30724;BME280;17473;52.286;20.930;2022-12-24T15:22:28;99980.25;;;5.85;100.00